Zenith Leader — 2ACU6 — position and weather

sailwx.info

Track history (hours):
 
Tides and Currents Weather Stations Pressure Air Temp Water Temp Dewpoint Dewpoint Depression Visibility Wind Speed Wind Dir Waves Ship Positions

Zenith Leader

Last reported at 2016-Dec-02 19:31 UTC. Time now 2016-Dec-03 09:41 UTC.
Position N 28°49' W 013°13'.

Length 200 m; draft 8.8 m.

Type: Cargo ship. MMSI: 235058697.

Date/timePositionNaut miles runAvg speedWind from/ knotsBaromVisibWave heightAir tempDewpointWater temp
2016-Dec-02 19:31N 28°49' W 013°13'1615.8
2016-Dec-02 18:29N 28°34' W 013°21'1516.0
2016-Dec-02 17:33N 28°21' W 013°28'1616.1
2016-Dec-02 16:33N 28°06' W 013°36'1615.8
2016-Dec-02 15:33N 27°52' W 013°44'1615.8
2016-Dec-02 14:33N 27°39' W 013°54'1615.7
2016-Dec-02 13:33N 27°26' W 014°04'1615.8
2016-Dec-02 12:34N 27°13' W 014°14'1616.1
2016-Dec-02 11:33N 26°60' W 014°24'1615.9
2016-Dec-02 10:33N 26°47' W 014°34'1615.9
2016-Dec-02 09:33N 26°33' W 014°43'1615.9
2016-Dec-02 08:33N 26°20' W 014°52'  
Track history (hours):
 
Tides and Currents Weather Stations Pressure Air Temp Water Temp Dewpoint Dewpoint Depression Visibility Wind Speed Wind Dir Waves Ship Positions

Zenith Leader

Last reported at 2016-Dec-02 19:31 UTC. Time now 2016-Dec-03 09:41 UTC.
Position N 28°49' W 013°13'.

Length 200 m; draft 8.8 m.

Type: Cargo ship. MMSI: 235058697.

Date/timePositionNaut miles runAvg speedWind from/ knotsBaromVisibWave heightAir tempDewpointWater temp
2016-Dec-02 19:31N 28°49' W 013°13'1615.8
2016-Dec-02 18:29N 28°34' W 013°21'1516.0
2016-Dec-02 17:33N 28°21' W 013°28'1616.1
2016-Dec-02 16:33N 28°06' W 013°36'1615.8
2016-Dec-02 15:33N 27°52' W 013°44'1615.8
2016-Dec-02 14:33N 27°39' W 013°54'1615.7
2016-Dec-02 13:33N 27°26' W 014°04'1615.8
2016-Dec-02 12:34N 27°13' W 014°14'1616.1
2016-Dec-02 11:33N 26°60' W 014°24'1615.9
2016-Dec-02 10:33N 26°47' W 014°34'1615.9
2016-Dec-02 09:33N 26°33' W 014°43'1615.9
2016-Dec-02 08:33N 26°20' W 014°52'  

Dump ship's entire track history